createdAt,value
2019-05-18T00:00:08.018Z,0.00
2019-05-18T00:01:07.979Z,0.00
2019-05-18T00:02:07.945Z,0.00
2019-05-18T00:03:07.971Z,0.00
2019-05-18T00:04:07.943Z,0.00
2019-05-18T00:05:07.914Z,0.00
2019-05-18T00:06:07.951Z,0.00
2019-05-18T00:07:07.921Z,0.00
2019-05-18T00:08:07.906Z,0.00
2019-05-18T00:09:07.869Z,0.00
2019-05-18T00:10:07.859Z,0.00
2019-05-18T00:11:07.885Z,0.00
2019-05-18T00:12:07.839Z,0.00
2019-05-18T00:13:07.834Z,0.00
2019-05-18T00:14:07.816Z,0.00
2019-05-18T00:15:07.807Z,0.00
2019-05-18T00:16:07.799Z,0.00
2019-05-18T00:17:17.320Z,0.00
2019-05-18T00:18:08.784Z,0.00
2019-05-18T00:19:07.766Z,0.00
2019-05-18T00:20:07.755Z,0.00
2019-05-18T00:21:07.746Z,0.00
2019-05-18T00:22:07.766Z,0.00
2019-05-18T00:23:07.718Z,0.00
2019-05-18T00:24:07.719Z,0.00
2019-05-18T00:25:07.701Z,0.00
2019-05-18T00:26:07.694Z,0.00
2019-05-18T00:27:07.713Z,0.00
2019-05-18T00:28:07.670Z,0.00
2019-05-18T00:29:07.650Z,0.00
2019-05-18T00:30:07.660Z,0.00
2019-05-18T00:31:07.634Z,0.00
2019-05-18T00:32:07.623Z,0.00
2019-05-18T00:33:07.640Z,0.00
2019-05-18T00:34:07.599Z,0.00
2019-05-18T00:35:07.585Z,0.00
2019-05-18T00:36:07.583Z,0.00
2019-05-18T00:37:07.571Z,0.00
2019-05-18T00:38:07.587Z,0.00
2019-05-18T00:39:07.578Z,0.00
2019-05-18T00:40:07.533Z,0.00
2019-05-18T00:41:07.558Z,0.00
2019-05-18T00:42:07.539Z,0.00
2019-05-18T00:43:07.737Z,0.00
2019-05-18T00:44:07.527Z,0.00
2019-05-18T00:45:07.558Z,0.00
2019-05-18T00:46:07.469Z,0.00
2019-05-18T00:47:07.509Z,0.00
2019-05-18T00:48:07.456Z,0.00
2019-05-18T00:49:07.472Z,0.00
2019-05-18T00:50:07.445Z,0.00
2019-05-18T00:51:07.422Z,0.00
2019-05-18T00:52:07.401Z,0.00
2019-05-18T00:53:07.393Z,0.00
2019-05-18T00:54:07.380Z,0.00
2019-05-18T00:55:07.421Z,0.00
2019-05-18T00:56:07.367Z,0.00
2019-05-18T00:57:07.369Z,0.00
2019-05-18T00:58:07.342Z,0.00
2019-05-18T00:59:07.353Z,0.00
2019-05-18T01:00:07.350Z,0.00
2019-05-18T01:01:07.305Z,0.00
2019-05-18T01:02:07.305Z,0.00
2019-05-18T01:03:07.291Z,0.00
2019-05-18T01:04:07.349Z,0.00
2019-05-18T01:05:07.338Z,0.00
2019-05-18T01:06:07.274Z,0.00
2019-05-18T01:07:07.242Z,0.00
2019-05-18T01:08:07.237Z,0.00
2019-05-18T01:09:07.259Z,0.00
2019-05-18T01:10:07.266Z,0.00
2019-05-18T01:11:07.206Z,0.00
2019-05-18T01:12:07.187Z,0.00
2019-05-18T01:13:07.176Z,0.00
2019-05-18T01:14:07.197Z,0.00
2019-05-18T01:15:07.161Z,0.00
2019-05-18T01:16:07.149Z,0.00
2019-05-18T01:17:07.159Z,0.00
2019-05-18T01:18:07.122Z,0.00
2019-05-18T01:19:07.227Z,0.00
2019-05-18T01:20:07.162Z,0.00
2019-05-18T01:21:07.148Z,0.00
2019-05-18T01:22:07.128Z,0.00
2019-05-18T01:23:07.137Z,0.00
2019-05-18T01:24:07.168Z,0.00
2019-05-18T01:25:07.059Z,0.00
2019-05-18T01:26:07.179Z,0.00
2019-05-18T01:27:07.074Z,0.00
2019-05-18T01:28:07.088Z,0.00
2019-05-18T01:29:07.117Z,0.00
2019-05-18T01:30:07.056Z,0.00
2019-05-18T01:31:07.102Z,0.00
2019-05-18T01:32:07.028Z,0.00
2019-05-18T01:33:07.095Z,0.00
2019-05-18T01:34:07.072Z,0.00
2019-05-18T01:35:07.018Z,0.00
2019-05-18T01:36:06.988Z,0.00
2019-05-18T01:37:07.005Z,0.00
2019-05-18T01:38:07.032Z,0.00
2019-05-18T01:39:07.007Z,0.00
2019-05-18T01:40:06.976Z,0.00
2019-05-18T01:41:06.930Z,0.00
2019-05-18T01:42:06.933Z,0.00
2019-05-18T01:43:06.911Z,0.00
2019-05-18T01:44:06.956Z,0.00
2019-05-18T01:45:16.476Z,0.00
2019-05-18T01:46:07.855Z,0.00
2019-05-18T01:47:06.845Z,0.00
2019-05-18T01:48:14.220Z,0.00
2019-05-18T01:49:07.918Z,0.00
2019-05-18T01:50:06.828Z,0.00
2019-05-18T01:51:06.818Z,0.00
2019-05-18T01:52:06.818Z,0.00
2019-05-18T01:53:06.810Z,0.00
2019-05-18T01:54:06.799Z,0.00
2019-05-18T01:55:06.830Z,0.00
2019-05-18T01:56:06.763Z,0.00
2019-05-18T01:57:06.793Z,0.00
2019-05-18T01:58:06.770Z,0.00
2019-05-18T01:59:06.803Z,0.00
2019-05-18T02:00:06.819Z,0.00
2019-05-18T02:01:06.723Z,0.00
2019-05-18T02:02:06.704Z,0.00
2019-05-18T02:03:06.696Z,0.00
2019-05-18T02:04:06.740Z,0.00
2019-05-18T02:05:06.655Z,0.00
2019-05-18T02:06:06.642Z,0.00
2019-05-18T02:07:06.633Z,0.00
2019-05-18T02:08:06.636Z,0.00
2019-05-18T02:09:06.680Z,0.00
2019-05-18T02:10:06.601Z,0.00
2019-05-18T02:11:06.600Z,0.00
2019-05-18T02:12:06.589Z,0.00
2019-05-18T02:13:06.790Z,0.00
2019-05-18T02:14:06.603Z,0.00
2019-05-18T02:15:06.557Z,0.00
2019-05-18T02:16:06.487Z,0.00
2019-05-18T02:17:06.494Z,0.00
2019-05-18T02:18:06.464Z,0.00
2019-05-18T02:19:06.485Z,0.00
2019-05-18T02:20:06.453Z,0.00
2019-05-18T02:21:06.436Z,0.00
2019-05-18T02:22:06.429Z,0.00
2019-05-18T02:23:06.412Z,0.00
2019-05-18T02:24:06.463Z,0.00
2019-05-18T02:25:06.402Z,0.00
2019-05-18T02:26:06.383Z,0.00
2019-05-18T02:27:06.375Z,0.00
2019-05-18T02:28:06.358Z,0.00
2019-05-18T02:29:06.382Z,0.00
2019-05-18T02:30:06.355Z,0.00
2019-05-18T02:31:06.325Z,0.00
2019-05-18T02:32:06.317Z,0.00
2019-05-18T02:33:06.326Z,0.00
2019-05-18T02:34:06.335Z,0.00
2019-05-18T02:35:06.320Z,0.00
2019-05-18T02:36:06.269Z,0.00
2019-05-18T02:37:06.259Z,0.00
2019-05-18T02:38:06.254Z,0.00
2019-05-18T02:39:06.271Z,0.00
2019-05-18T02:40:06.258Z,0.00
2019-05-18T02:41:06.215Z,0.00
2019-05-18T02:42:06.211Z,0.00
2019-05-18T02:43:06.195Z,0.00
2019-05-18T02:44:06.189Z,0.00
2019-05-18T02:45:06.212Z,0.00
2019-05-18T02:46:06.166Z,0.00
2019-05-18T02:47:06.155Z,0.00
2019-05-18T02:48:06.147Z,0.00
2019-05-18T02:49:06.133Z,0.00
2019-05-18T02:50:06.159Z,0.00
2019-05-18T02:51:06.108Z,0.00
2019-05-18T02:52:06.105Z,0.00
2019-05-18T02:53:06.098Z,0.00
2019-05-18T02:54:06.075Z,0.00
2019-05-18T02:55:06.098Z,0.00
2019-05-18T02:56:06.057Z,0.00
2019-05-18T02:57:06.046Z,0.00
2019-05-18T02:58:06.080Z,0.00
2019-05-18T02:59:06.027Z,0.00
2019-05-18T03:00:06.017Z,0.00
2019-05-18T03:01:06.004Z,0.00
2019-05-18T03:02:05.991Z,0.00
2019-05-18T03:03:05.979Z,0.00
2019-05-18T03:04:06.017Z,0.00
2019-05-18T03:05:05.983Z,0.00
2019-05-18T03:06:05.979Z,0.00
2019-05-18T03:07:05.951Z,0.00
2019-05-18T03:08:05.925Z,0.00
2019-05-18T03:09:05.932Z,0.00
2019-05-18T03:10:05.940Z,0.00
2019-05-18T03:11:05.930Z,0.00
2019-05-18T03:12:05.903Z,0.00
2019-05-18T03:13:05.870Z,0.00
2019-05-18T03:14:06.330Z,0.00
2019-05-18T03:15:05.880Z,0.00
2019-05-18T03:16:05.847Z,0.00
2019-05-18T03:17:05.839Z,0.00
2019-05-18T03:18:05.819Z,0.00
2019-05-18T03:19:08.622Z,0.00
2019-05-18T03:20:05.825Z,0.00
2019-05-18T03:21:05.784Z,0.00
2019-05-18T03:22:05.772Z,0.00
2019-05-18T03:23:05.774Z,0.00
2019-05-18T03:24:05.781Z,0.00
2019-05-18T03:25:05.811Z,0.00
2019-05-18T03:26:05.743Z,0.00
2019-05-18T03:27:05.720Z,0.00
2019-05-18T03:28:05.763Z,0.00
2019-05-18T03:29:05.701Z,0.00
2019-05-18T03:30:05.735Z,0.00
2019-05-18T03:31:05.706Z,0.00
2019-05-18T03:32:05.664Z,0.00
2019-05-18T03:33:05.703Z,0.00
2019-05-18T03:34:05.661Z,0.00
2019-05-18T03:35:05.673Z,0.00
2019-05-18T03:36:05.629Z,0.00
2019-05-18T03:37:05.614Z,0.00
2019-05-18T03:38:05.602Z,0.00
2019-05-18T03:39:05.594Z,0.00
2019-05-18T03:40:05.608Z,0.00
2019-05-18T03:41:05.565Z,0.00
2019-05-18T03:42:05.560Z,0.00
2019-05-18T03:43:05.553Z,0.00
2019-05-18T03:44:05.531Z,0.00
2019-05-18T03:45:05.552Z,0.00
2019-05-18T03:46:05.517Z,0.00
2019-05-18T03:47:05.502Z,0.00
2019-05-18T03:48:05.501Z,0.00
2019-05-18T03:49:05.484Z,0.00
2019-05-18T03:50:06.260Z,0.00
2019-05-18T03:51:05.463Z,0.00
2019-05-18T03:52:05.445Z,0.00
2019-05-18T03:53:05.448Z,0.00
2019-05-18T03:54:05.425Z,0.00
2019-05-18T03:55:05.452Z,0.00
2019-05-18T03:56:05.409Z,0.00
2019-05-18T03:57:05.430Z,0.00
2019-05-18T03:58:05.380Z,0.00
2019-05-18T03:59:05.390Z,0.00
2019-05-18T04:00:05.398Z,0.00
2019-05-18T04:01:05.359Z,0.00
2019-05-18T04:02:05.343Z,0.00
2019-05-18T04:03:05.337Z,0.00
2019-05-18T04:04:05.320Z,0.00
2019-05-18T04:05:05.368Z,0.00
2019-05-18T04:06:05.294Z,0.00
2019-05-18T04:07:05.286Z,0.00
2019-05-18T04:08:05.284Z,0.00
2019-05-18T04:09:06.250Z,0.00
2019-05-18T04:10:05.291Z,0.00
2019-05-18T04:11:05.281Z,0.00
2019-05-18T04:12:05.286Z,0.00
2019-05-18T04:13:05.252Z,0.00
2019-05-18T04:14:08.187Z,0.00
2019-05-18T04:15:05.203Z,0.00
2019-05-18T04:16:05.242Z,0.00
2019-05-18T04:17:05.179Z,0.00
2019-05-18T04:18:05.193Z,0.00
2019-05-18T04:19:05.154Z,0.00
2019-05-18T04:20:05.162Z,0.00
2019-05-18T04:21:05.180Z,0.00
2019-05-18T04:22:05.127Z,0.00
2019-05-18T04:23:05.116Z,0.00
2019-05-18T04:24:05.135Z,0.00
2019-05-18T04:25:05.093Z,0.00
2019-05-18T04:26:05.119Z,0.00
2019-05-18T04:27:05.066Z,0.00
2019-05-18T04:28:05.063Z,0.00
2019-05-18T04:29:05.051Z,0.00
2019-05-18T04:30:05.041Z,0.00
2019-05-18T04:31:05.058Z,0.00
2019-05-18T04:32:05.020Z,0.00
2019-05-18T04:33:05.033Z,0.00
2019-05-18T04:34:04.997Z,0.00
2019-05-18T04:35:04.986Z,0.00
2019-05-18T04:36:05.016Z,0.00
2019-05-18T04:37:04.957Z,0.00
2019-05-18T04:38:04.946Z,0.00
2019-05-18T04:39:04.945Z,0.00
2019-05-18T04:40:04.936Z,0.00
2019-05-18T04:41:04.960Z,0.00
2019-05-18T04:42:04.913Z,0.00
2019-05-18T04:43:04.912Z,0.00
2019-05-18T04:44:04.881Z,0.00
2019-05-18T04:45:04.903Z,0.00
2019-05-18T04:46:04.865Z,0.00
2019-05-18T04:47:04.854Z,0.00
2019-05-18T04:48:04.836Z,0.00
2019-05-18T04:49:04.825Z,0.00
2019-05-18T04:50:06.234Z,0.00
2019-05-18T04:51:04.810Z,0.00
2019-05-18T04:52:04.798Z,0.00
2019-05-18T04:53:04.790Z,0.00
2019-05-18T04:54:04.776Z,0.00
2019-05-18T04:55:04.799Z,0.00
2019-05-18T04:56:04.752Z,0.00
2019-05-18T04:57:04.739Z,0.00
2019-05-18T04:58:04.732Z,0.00
2019-05-18T04:59:04.735Z,0.00
2019-05-18T05:00:04.710Z,0.00
2019-05-18T05:01:04.732Z,0.00
2019-05-18T05:02:04.716Z,0.00
2019-05-18T05:03:04.674Z,0.00
2019-05-18T05:04:04.682Z,0.00
2019-05-18T05:05:04.661Z,0.00
2019-05-18T05:06:04.682Z,0.00
2019-05-18T05:07:04.635Z,0.00
2019-05-18T05:08:04.621Z,0.00
2019-05-18T05:09:04.609Z,0.00
2019-05-18T05:10:04.847Z,0.00
2019-05-18T05:11:04.624Z,0.00
2019-05-18T05:12:04.579Z,0.00
2019-05-18T05:13:04.569Z,0.00
2019-05-18T05:14:04.562Z,0.00
2019-05-18T05:15:04.550Z,0.00
2019-05-18T05:16:04.564Z,0.00
2019-05-18T05:17:04.523Z,0.00
2019-05-18T05:18:04.516Z,0.00
2019-05-18T05:19:04.510Z,0.00
2019-05-18T05:20:18.308Z,0.00
2019-05-18T05:21:05.514Z,0.10
2019-05-18T05:22:04.467Z,0.00
2019-05-18T05:23:04.462Z,0.00
2019-05-18T05:24:04.456Z,0.00
2019-05-18T05:25:04.452Z,0.00
2019-05-18T05:26:04.465Z,0.00
2019-05-18T05:27:04.423Z,0.00
2019-05-18T05:28:04.404Z,0.00
2019-05-18T05:29:04.395Z,0.00
2019-05-18T05:30:04.382Z,0.00
2019-05-18T05:31:04.416Z,0.00
2019-05-18T05:32:04.374Z,0.00
2019-05-18T05:33:04.368Z,0.00
2019-05-18T05:34:04.372Z,0.00
2019-05-18T05:35:04.353Z,0.00
2019-05-18T05:36:04.325Z,0.00
2019-05-18T05:37:04.371Z,0.00
2019-05-18T05:38:04.302Z,0.00
2019-05-18T05:39:04.293Z,0.00
2019-05-18T05:40:04.365Z,0.00
2019-05-18T05:41:04.274Z,0.00
2019-05-18T05:42:04.306Z,0.00
2019-05-18T05:43:04.267Z,0.00
2019-05-18T05:44:04.244Z,0.00
2019-05-18T05:45:04.249Z,0.00
2019-05-18T05:46:04.271Z,0.00
2019-05-18T05:47:04.207Z,0.00
2019-05-18T05:48:04.190Z,0.00
2019-05-18T05:49:04.179Z,0.00
2019-05-18T05:50:04.175Z,0.00
2019-05-18T05:51:04.198Z,0.00
2019-05-18T05:52:04.227Z,0.00
2019-05-18T05:53:04.143Z,0.00
2019-05-18T05:54:04.125Z,0.00
2019-05-18T05:55:04.121Z,0.00
2019-05-18T05:56:04.167Z,0.00
2019-05-18T05:57:04.130Z,0.00
2019-05-18T05:58:04.092Z,0.00
2019-05-18T05:59:04.077Z,0.00
2019-05-18T06:00:04.065Z,0.00
2019-05-18T06:01:04.082Z,0.00
2019-05-18T06:02:04.040Z,0.00
2019-05-18T06:03:04.035Z,0.00
2019-05-18T06:04:04.022Z,0.00
2019-05-18T06:05:04.014Z,0.00
2019-05-18T06:06:03.996Z,0.00
2019-05-18T06:07:04.007Z,0.00
2019-05-18T06:08:03.981Z,0.00
2019-05-18T06:09:03.974Z,0.00
2019-05-18T06:10:03.961Z,0.00
2019-05-18T06:11:03.951Z,0.00
2019-05-18T06:12:03.974Z,0.00
2019-05-18T06:13:03.922Z,0.00
2019-05-18T06:14:03.911Z,0.00
2019-05-18T06:15:03.913Z,0.00
2019-05-18T06:16:03.894Z,0.00
2019-05-18T06:17:03.945Z,0.00
2019-05-18T06:18:03.874Z,0.00
2019-05-18T06:19:03.863Z,0.00
2019-05-18T06:20:03.847Z,0.00
2019-05-18T06:21:03.836Z,0.00
2019-05-18T06:22:03.862Z,0.00
2019-05-18T06:23:03.822Z,0.00
2019-05-18T06:24:03.807Z,0.00
2019-05-18T06:25:05.211Z,0.00
2019-05-18T06:26:03.782Z,0.00
2019-05-18T06:27:03.802Z,0.00
2019-05-18T06:28:03.783Z,0.00
2019-05-18T06:29:03.902Z,0.00
2019-05-18T06:30:03.772Z,0.00
2019-05-18T06:31:03.778Z,0.00
2019-05-18T06:32:03.720Z,0.00
2019-05-18T06:33:03.712Z,0.00
2019-05-18T06:34:03.746Z,0.00
2019-05-18T06:35:03.683Z,0.00
2019-05-18T06:36:03.684Z,0.00
2019-05-18T06:37:03.692Z,0.00
2019-05-18T06:38:03.667Z,0.00
2019-05-18T06:39:03.646Z,0.00
2019-05-18T06:40:03.636Z,0.00
2019-05-18T06:41:03.634Z,0.00
2019-05-18T06:42:03.664Z,0.00
2019-05-18T06:43:03.610Z,0.00
2019-05-18T06:44:03.588Z,0.00
2019-05-18T06:45:03.577Z,0.00
2019-05-18T06:46:03.566Z,0.00
2019-05-18T06:47:03.582Z,0.00
2019-05-18T06:48:03.631Z,0.00
2019-05-18T06:49:03.542Z,0.00
2019-05-18T06:50:03.533Z,0.00
2019-05-18T06:51:07.322Z,0.00
2019-05-18T06:52:03.540Z,0.00
2019-05-18T06:53:03.497Z,0.00
2019-05-18T06:54:03.489Z,0.00
2019-05-18T06:55:03.485Z,0.00
2019-05-18T06:56:03.521Z,0.00
2019-05-18T06:57:03.585Z,0.00
2019-05-18T06:58:03.452Z,0.00
2019-05-18T06:59:03.534Z,0.00
2019-05-18T07:00:03.500Z,0.00
2019-05-18T07:01:03.411Z,0.00
2019-05-18T07:02:03.423Z,0.00
2019-05-18T07:03:03.390Z,0.00
2019-05-18T07:04:03.376Z,0.00
2019-05-18T07:05:03.366Z,0.00
2019-05-18T07:06:03.354Z,0.00
2019-05-18T07:07:03.377Z,0.00
2019-05-18T07:08:03.335Z,0.00
2019-05-18T07:09:03.388Z,0.00
2019-05-18T07:10:03.320Z,0.00
2019-05-18T07:11:03.314Z,0.00
2019-05-18T07:12:03.319Z,0.00
2019-05-18T07:13:03.285Z,0.00
2019-05-18T07:14:03.270Z,0.00
2019-05-18T07:15:03.355Z,0.00
2019-05-18T07:16:03.339Z,0.00
2019-05-18T07:17:03.265Z,0.00
2019-05-18T07:18:03.228Z,0.00
2019-05-18T07:19:03.229Z,0.00
2019-05-18T07:20:03.303Z,0.00
2019-05-18T07:21:03.204Z,0.00
2019-05-18T07:22:03.570Z,0.00
2019-05-18T07:23:03.199Z,0.00
2019-05-18T07:24:03.201Z,0.00
2019-05-18T07:25:03.159Z,0.00
2019-05-18T07:26:03.258Z,0.00
2019-05-18T07:27:03.131Z,0.00
2019-05-18T07:28:03.150Z,0.00
2019-05-18T07:29:05.642Z,0.00
2019-05-18T07:30:03.099Z,0.00
2019-05-18T07:31:03.106Z,0.00
2019-05-18T07:32:03.159Z,0.00
2019-05-18T07:33:03.179Z,0.00
2019-05-18T07:34:03.060Z,0.00
2019-05-18T07:35:03.120Z,0.00
2019-05-18T07:36:03.104Z,0.00
2019-05-18T07:37:03.070Z,0.00
2019-05-18T07:38:03.067Z,0.00
2019-05-18T07:39:03.124Z,0.00
2019-05-18T07:40:03.077Z,0.00
2019-05-18T07:41:03.018Z,0.00
2019-05-18T07:42:03.013Z,0.00
2019-05-18T07:43:03.095Z,0.00
2019-05-18T07:44:03.014Z,0.00
2019-05-18T07:45:03.020Z,0.00
2019-05-18T07:46:03.034Z,0.00
2019-05-18T07:47:02.944Z,0.00
2019-05-18T07:48:03.039Z,0.00
2019-05-18T07:49:02.959Z,0.00
2019-05-18T07:50:02.978Z,0.00
2019-05-18T07:51:02.937Z,0.00
2019-05-18T07:52:02.951Z,0.00
2019-05-18T07:53:02.987Z,0.00
2019-05-18T07:54:02.937Z,0.00
2019-05-18T07:55:02.910Z,0.10
2019-05-18T07:56:02.909Z,0.00
2019-05-18T07:57:02.874Z,0.00
2019-05-18T07:58:02.870Z,0.00
2019-05-18T07:59:02.922Z,0.00
2019-05-18T08:00:02.868Z,0.10
2019-05-18T08:01:02.856Z,0.10
2019-05-18T08:02:02.792Z,0.10
2019-05-18T08:03:03.440Z,0.10
2019-05-18T08:04:02.944Z,0.10
2019-05-18T08:05:02.812Z,0.20
2019-05-18T08:06:02.840Z,0.10
2019-05-18T08:07:02.765Z,0.20
2019-05-18T08:08:02.792Z,0.20
2019-05-18T08:09:02.818Z,0.20
2019-05-18T08:10:02.793Z,0.20
2019-05-18T08:11:02.727Z,0.20
2019-05-18T08:12:02.772Z,0.20
2019-05-18T08:13:02.703Z,0.20
2019-05-18T08:14:02.751Z,0.20
2019-05-18T08:15:02.688Z,0.20
2019-05-18T08:16:02.728Z,0.20
2019-05-18T08:17:02.683Z,0.20
2019-05-18T08:18:02.718Z,0.30
2019-05-18T08:19:02.710Z,0.20
2019-05-18T08:20:02.616Z,0.30
2019-05-18T08:21:02.610Z,0.30
2019-05-18T08:22:02.601Z,0.30
2019-05-18T08:23:02.590Z,0.30
2019-05-18T08:24:02.639Z,0.30
2019-05-18T08:25:02.580Z,0.30
2019-05-18T08:26:02.570Z,0.30
2019-05-18T08:27:02.677Z,0.30
2019-05-18T08:28:02.547Z,0.30
2019-05-18T08:29:02.545Z,0.30
2019-05-18T08:30:02.570Z,0.30
2019-05-18T08:31:02.535Z,0.30
2019-05-18T08:32:02.512Z,0.30
2019-05-18T08:33:02.513Z,0.30
2019-05-18T08:34:02.514Z,0.30
2019-05-18T08:35:02.525Z,0.30
2019-05-18T08:36:02.489Z,0.30
2019-05-18T08:37:02.478Z,0.30
2019-05-18T08:38:02.482Z,0.30
2019-05-18T08:39:02.617Z,0.30
2019-05-18T08:40:02.479Z,0.30
2019-05-18T08:41:02.496Z,0.30
2019-05-18T08:42:02.434Z,0.30
2019-05-18T08:43:02.422Z,0.30
2019-05-18T08:44:02.418Z,0.30
2019-05-18T08:45:02.442Z,0.30
2019-05-18T08:46:02.419Z,0.30
2019-05-18T08:47:02.387Z,0.30
2019-05-18T08:48:02.386Z,0.30
2019-05-18T08:49:02.401Z,0.30
2019-05-18T08:50:02.372Z,0.30
2019-05-18T08:51:02.394Z,0.30
2019-05-18T08:52:08.354Z,0.30
2019-05-18T08:53:03.371Z,0.30
2019-05-18T08:54:02.334Z,0.30
2019-05-18T08:55:02.448Z,0.30
2019-05-18T08:56:02.357Z,0.30
2019-05-18T08:57:02.319Z,0.30
2019-05-18T08:58:02.308Z,0.30
2019-05-18T08:59:02.297Z,0.30
2019-05-18T09:00:02.342Z,0.30
2019-05-18T09:01:02.310Z,0.40
2019-05-18T09:02:02.275Z,0.40
2019-05-18T09:03:02.282Z,0.40
2019-05-18T09:04:02.312Z,0.40
2019-05-18T09:05:04.783Z,0.40
2019-05-18T09:06:02.272Z,0.50
2019-05-18T09:07:02.263Z,0.50
2019-05-18T09:08:02.227Z,0.60
2019-05-18T09:09:02.223Z,0.60
2019-05-18T09:10:02.214Z,0.60
2019-05-18T09:11:02.252Z,0.70
2019-05-18T09:12:02.206Z,0.80
2019-05-18T09:13:02.215Z,0.70
2019-05-18T09:14:02.214Z,0.80
2019-05-18T09:15:02.175Z,0.80
2019-05-18T09:16:02.173Z,0.80
2019-05-18T09:17:02.189Z,0.80
2019-05-18T09:18:04.898Z,0.80
2019-05-18T09:19:02.150Z,0.70
2019-05-18T09:20:02.139Z,0.80
2019-05-18T09:21:02.225Z,0.90
2019-05-18T09:22:02.151Z,0.90
2019-05-18T09:23:02.117Z,1.00
2019-05-18T09:24:02.105Z,1.00
2019-05-18T09:25:02.254Z,1.10
2019-05-18T09:26:02.110Z,1.30
2019-05-18T09:27:02.113Z,1.30
2019-05-18T09:28:02.098Z,1.70
2019-05-18T09:29:02.186Z,1.70
2019-05-18T09:30:02.070Z,1.60
2019-05-18T09:31:02.076Z,1.90
2019-05-18T09:32:02.070Z,1.80
2019-05-18T09:33:02.042Z,1.80
2019-05-18T09:34:02.041Z,2.00
2019-05-18T09:35:02.034Z,2.00
2019-05-18T09:36:02.023Z,1.80
2019-05-18T09:37:02.041Z,1.90
2019-05-18T09:38:02.008Z,1.90
2019-05-18T09:39:02.002Z,2.00
2019-05-18T09:40:02.007Z,2.00
2019-05-18T09:41:01.990Z,2.00
2019-05-18T09:42:02.037Z,2.20
2019-05-18T09:43:02.859Z,2.50
2019-05-18T09:44:02.003Z,2.70
2019-05-18T09:45:02.008Z,3.00
2019-05-18T09:46:01.963Z,3.10
2019-05-18T09:47:02.461Z,3.40
2019-05-18T09:48:01.955Z,4.10
2019-05-18T09:49:02.859Z,4.10
2019-05-18T09:50:01.983Z,3.80
2019-05-18T09:51:01.920Z,4.10
2019-05-18T09:52:02.095Z,4.10
2019-05-18T09:53:01.985Z,4.10
2019-05-18T09:54:01.909Z,4.10
2019-05-18T09:55:01.930Z,3.90
2019-05-18T09:56:01.901Z,3.90
2019-05-18T09:57:01.990Z,4.30
2019-05-18T09:58:01.990Z,4.60
2019-05-18T09:59:01.955Z,4.00
2019-05-18T10:00:02.859Z,4.30
2019-05-18T10:01:01.937Z,4.70
2019-05-18T10:02:01.959Z,4.90
2019-05-18T10:03:01.950Z,4.80
2019-05-18T10:04:01.946Z,4.80
2019-05-18T10:05:01.858Z,4.70
2019-05-18T10:06:02.102Z,4.20
2019-05-18T10:07:01.977Z,4.30
2019-05-18T10:08:02.039Z,4.10
2019-05-18T10:09:02.016Z,3.70
2019-05-18T10:10:02.035Z,4.20
2019-05-18T10:11:01.896Z,3.80
2019-05-18T10:12:02.092Z,3.40
2019-05-18T10:13:01.983Z,3.30
2019-05-18T10:14:01.958Z,3.20
2019-05-18T10:15:02.077Z,3.00
2019-05-18T10:16:01.847Z,2.50
2019-05-18T10:17:01.788Z,2.30
2019-05-18T10:18:01.785Z,1.90
2019-05-18T10:19:01.755Z,1.50
2019-05-18T10:20:16.417Z,1.20
2019-05-18T10:21:01.740Z,1.00
2019-05-18T10:22:01.737Z,0.80
2019-05-18T10:23:12.326Z,0.60
2019-05-18T10:24:02.772Z,0.50
2019-05-18T10:25:01.717Z,0.30
2019-05-18T10:26:01.700Z,0.30
2019-05-18T10:27:01.697Z,0.20
2019-05-18T10:28:01.728Z,0.20
2019-05-18T10:29:01.677Z,0.20
2019-05-18T10:30:01.683Z,0.20
2019-05-18T10:31:01.697Z,0.10
2019-05-18T10:32:01.665Z,0.10
2019-05-18T10:33:01.745Z,0.10
2019-05-18T10:34:01.636Z,0.00
2019-05-18T10:35:01.627Z,0.00
2019-05-18T10:36:01.642Z,0.00
2019-05-18T10:37:01.652Z,0.00
2019-05-18T10:38:01.685Z,0.00
2019-05-18T10:39:01.593Z,0.00
2019-05-18T10:40:01.582Z,0.00
2019-05-18T10:41:02.469Z,0.00
2019-05-18T10:42:01.573Z,0.00
2019-05-18T10:43:01.642Z,0.00
2019-05-18T10:44:01.588Z,0.00
2019-05-18T10:45:01.573Z,0.00
2019-05-18T10:46:02.421Z,0.00
2019-05-18T10:47:01.591Z,0.00
2019-05-18T10:48:01.628Z,0.00
2019-05-18T10:49:01.500Z,0.00
2019-05-18T10:50:01.558Z,0.00
2019-05-18T10:51:01.483Z,0.00
2019-05-18T10:52:01.481Z,0.00
2019-05-18T10:53:01.484Z,0.00
2019-05-18T10:54:01.460Z,0.00
2019-05-18T10:55:01.540Z,0.00
2019-05-18T10:56:01.480Z,0.00
2019-05-18T10:57:01.425Z,0.00
2019-05-18T10:58:01.416Z,0.00
2019-05-18T10:59:01.397Z,0.00
2019-05-18T11:00:01.437Z,0.00
2019-05-18T11:01:01.381Z,0.00
2019-05-18T11:02:01.372Z,0.00
2019-05-18T11:03:01.362Z,0.00
2019-05-18T11:04:01.357Z,0.00
2019-05-18T11:05:01.423Z,0.00
2019-05-18T11:06:01.356Z,0.00
2019-05-18T11:07:01.324Z,0.00
2019-05-18T11:08:01.318Z,0.00
2019-05-18T11:09:01.329Z,0.00
2019-05-18T11:10:01.296Z,0.00
2019-05-18T11:11:01.320Z,0.00
2019-05-18T11:12:01.284Z,0.00
2019-05-18T11:13:01.310Z,0.00
2019-05-18T11:14:01.247Z,0.00
2019-05-18T11:15:01.448Z,0.00
2019-05-18T11:16:01.226Z,0.00
2019-05-18T11:17:01.218Z,0.00
2019-05-18T11:18:01.202Z,0.00
2019-05-18T11:19:01.222Z,0.00
2019-05-18T11:20:01.182Z,0.00
2019-05-18T11:21:01.222Z,0.00
2019-05-18T11:22:01.192Z,0.00
2019-05-18T11:23:01.154Z,0.00
2019-05-18T11:24:01.166Z,0.00
2019-05-18T11:25:01.126Z,0.00
2019-05-18T11:26:01.142Z,0.00
2019-05-18T11:27:01.286Z,0.00
2019-05-18T11:28:01.103Z,0.00
2019-05-18T11:29:01.095Z,0.00
2019-05-18T11:30:01.198Z,0.00
2019-05-18T11:31:01.062Z,0.00
2019-05-18T11:32:01.314Z,0.00
2019-05-18T11:33:01.125Z,0.00
2019-05-18T11:34:01.050Z,0.00
2019-05-18T11:35:01.031Z,0.00
2019-05-18T11:36:01.019Z,0.00
2019-05-18T11:37:03.265Z,0.00
2019-05-18T11:38:01.042Z,0.00
2019-05-18T11:39:00.998Z,0.00
2019-05-18T11:40:02.118Z,0.00
2019-05-18T11:41:00.966Z,0.00
2019-05-18T11:42:00.962Z,0.00
2019-05-18T11:43:00.972Z,0.00
2019-05-18T11:44:00.931Z,0.00
2019-05-18T11:45:00.955Z,0.00
2019-05-18T11:46:00.975Z,0.00
2019-05-18T11:47:00.912Z,0.00
2019-05-18T11:48:01.024Z,0.00
2019-05-18T11:49:00.882Z,0.00
2019-05-18T11:50:00.869Z,0.00
2019-05-18T11:51:00.884Z,0.00
2019-05-18T11:52:00.847Z,0.00
2019-05-18T11:53:00.845Z,0.00
2019-05-18T11:54:00.862Z,0.00
2019-05-18T11:55:00.862Z,0.00
2019-05-18T11:56:00.804Z,0.00
2019-05-18T11:57:00.826Z,0.00
2019-05-18T11:58:00.792Z,0.00
2019-05-18T11:59:00.779Z,0.00
2019-05-18T12:00:00.804Z,0.00
2019-05-18T12:01:00.798Z,0.00
2019-05-18T12:02:00.754Z,0.00
2019-05-18T12:03:00.746Z,0.00
2019-05-18T12:04:00.719Z,0.00
2019-05-18T12:05:00.834Z,0.00
2019-05-18T12:06:00.717Z,0.00
2019-05-18T12:07:00.739Z,0.00
2019-05-18T12:08:00.687Z,0.00
2019-05-18T12:09:00.671Z,0.00
2019-05-18T12:10:00.693Z,0.00
2019-05-18T12:11:00.650Z,0.00
2019-05-18T12:12:00.644Z,0.00
2019-05-18T12:13:00.644Z,0.00
2019-05-18T12:14:00.613Z,0.00
2019-05-18T12:15:00.637Z,0.00
2019-05-18T12:16:00.597Z,0.00
2019-05-18T12:17:00.610Z,0.00
2019-05-18T12:18:00.602Z,0.00
2019-05-18T12:19:00.564Z,0.00
2019-05-18T12:20:00.591Z,0.00
2019-05-18T12:21:00.543Z,0.00
2019-05-18T12:22:00.526Z,0.00
2019-05-18T12:23:00.515Z,0.00
2019-05-18T12:24:14.242Z,0.00
2019-05-18T12:25:01.535Z,0.00
2019-05-18T12:26:00.510Z,0.00
2019-05-18T12:27:00.477Z,0.00
2019-05-18T12:28:00.477Z,0.00
2019-05-18T12:29:00.452Z,0.00
2019-05-18T12:30:00.483Z,0.00
2019-05-18T12:31:02.185Z,0.00
2019-05-18T12:32:00.431Z,0.00
2019-05-18T12:33:00.415Z,0.00
2019-05-18T12:34:00.401Z,0.00
2019-05-18T12:35:00.441Z,0.00
2019-05-18T12:36:00.381Z,0.00
2019-05-18T12:37:00.453Z,0.00
2019-05-18T12:38:00.364Z,0.00
2019-05-18T12:39:00.351Z,0.00
2019-05-18T12:40:00.375Z,0.00
2019-05-18T12:41:00.335Z,0.00
2019-05-18T12:42:00.313Z,0.00
2019-05-18T12:43:00.489Z,0.00
2019-05-18T12:44:00.307Z,0.00
2019-05-18T12:45:00.330Z,0.00
2019-05-18T12:46:00.281Z,0.00
2019-05-18T12:47:00.274Z,0.00
2019-05-18T12:48:00.251Z,0.00
2019-05-18T12:49:00.242Z,0.00
2019-05-18T12:50:00.279Z,0.00
2019-05-18T12:51:00.283Z,0.00
2019-05-18T12:52:00.222Z,0.00
2019-05-18T12:53:00.207Z,0.00
2019-05-18T12:54:00.195Z,0.00
2019-05-18T12:55:00.183Z,0.00
2019-05-18T12:56:00.201Z,0.00
2019-05-18T12:57:00.165Z,0.00
2019-05-18T12:58:00.201Z,0.00
2019-05-18T12:59:00.187Z,0.00
2019-05-18T13:00:00.169Z,0.00
2019-05-18T13:01:00.182Z,0.00
2019-05-18T13:02:00.110Z,0.00
2019-05-18T13:03:00.104Z,0.00
2019-05-18T13:04:00.104Z,0.00
2019-05-18T13:05:00.086Z,0.00
2019-05-18T13:06:00.100Z,0.00
2019-05-18T13:07:00.054Z,0.00
2019-05-18T13:08:00.042Z,0.00
2019-05-18T13:09:00.032Z,0.00
2019-05-18T13:10:00.030Z,0.00
2019-05-18T13:11:00.062Z,0.00
2019-05-18T13:12:00.041Z,0.00
2019-05-18T13:12:59.999Z,0.00
2019-05-18T13:13:59.991Z,0.00
2019-05-18T13:14:59.971Z,0.00
2019-05-18T13:16:00.000Z,0.00
2019-05-18T13:16:59.956Z,0.00
2019-05-18T13:17:59.938Z,0.00